Roche, United Kingdom
Current Conditions -  °F | °C
As of 7:50 AM on Wednesday 26 Nov 2014 (Local Time) from EGHQ Reporting Station
Broken Clouds Broken Clouds  
Wind Chill: 43°   Ceiling: 1100
Heat Index: 43°   Visibility: 6mi
Dew Point: 43°   Wind: 3mph
Humidity: 100%   Direction: 40°NE
Pressure: 29.91"   Gusts: NA
Location:  50.41°N, 4.83°W
Report Text: EGHQ 260750Z 04003KT 9000 BKN011 06/06 Q1013
Loading
Personal Weather Stations






























Interactive Weather Map New forecast layout! Learn more

10-Day Weather Forecast

Advertisements
Track Severe Weather on mobile